Time;durP1;ratioP1;P1;durP2;ratioP2;P2;SDS_P1;SDS_P2;PMS_P1;PMS_P2;Temp;Humidity;BMP_temperature;BMP_pressure;BME280_temperature;BME280_humidity;BME280_pressure;Samples;Min_cycle;Max_cycle;Signal;HPM_P1;HPM_P2
2023/06/21 00:00:58;;;;;;;11.10;6.40;;;20.60;99.90;;;;;;5053099;28;20224;-82
2023/06/21 00:03:26;;;;;;;7.50;6.32;;;20.40;99.90;;;;;;5036486;28;20885;-79
2023/06/21 00:05:53;;;;;;;9.43;6.63;;;20.40;99.90;;;;;;5036238;28;20238;-81
2023/06/21 00:08:21;;;;;;;9.32;6.30;;;20.60;99.90;;;;;;5036191;28;20203;-81
2023/06/21 00:10:48;;;;;;;7.57;6.25;;;20.60;99.90;;;;;;5036849;28;20270;-80
2023/06/21 00:13:15;;;;;;;7.65;6.15;;;20.60;99.90;;;;;;5036045;28;20726;-80
2023/06/21 00:15:42;;;;;;;7.07;6.10;;;20.70;99.90;;;;;;5036875;28;20204;-81
2023/06/21 00:18:09;;;;;;;8.40;5.70;;;20.60;99.90;;;;;;5035569;28;20218;-79
2023/06/21 00:20:38;;;;;;;8.82;6.20;;;20.70;99.90;;;;;;5065984;28;20221;-79
2023/06/21 00:23:07;;;;;;;7.20;5.93;;;20.60;99.90;;;;;;5076232;28;20202;-81
2023/06/21 00:25:34;;;;;;;8.25;6.28;;;20.40;99.90;;;;;;5076068;28;20202;-79
2023/06/21 00:28:01;;;;;;;8.30;6.00;;;20.50;99.90;;;;;;5075390;28;20723;-80
2023/06/21 00:30:28;;;;;;;7.63;6.30;;;20.30;99.90;;;;;;5051080;28;20222;-80
2023/06/21 00:32:55;;;;;;;7.13;5.45;;;20.20;99.90;;;;;;5050947;28;20192;-79
2023/06/21 00:35:21;;;;;;;6.00;5.40;;;20.40;99.90;;;;;;5036375;28;20287;-79
2023/06/21 00:37:50;;;;;;;6.70;5.95;;;20.20;99.90;;;;;;5043521;28;20206;-79
2023/06/21 00:40:18;;;;;;;6.88;5.95;;;20.30;99.90;;;;;;5055334;28;20219;-79
2023/06/21 00:42:45;;;;;;;8.70;6.55;;;20.20;99.90;;;;;;5048838;28;20253;-81
2023/06/21 00:45:15;;;;;;;8.55;5.85;;;20.20;99.90;;;;;;5037037;28;20652;-80
2023/06/21 00:47:42;;;;;;;6.72;5.60;;;20.10;99.90;;;;;;5035398;28;20261;-81
2023/06/21 00:50:11;;;;;;;7.78;6.32;;;20.20;99.90;;;;;;5035352;28;20744;-81
2023/06/21 00:52:39;;;;;;;6.07;5.43;;;20.20;99.90;;;;;;5035720;28;20267;-81
2023/06/21 00:55:09;;;;;;;7.20;5.53;;;20.20;99.90;;;;;;5048618;28;20676;-81
2023/06/21 00:57:35;;;;;;;7.85;6.22;;;20.20;99.90;;;;;;5055418;28;20794;-79
2023/06/21 01:00:03;;;;;;;6.47;5.75;;;20.20;99.90;;;;;;5042163;28;20218;-81
2023/06/21 01:02:31;;;;;;;6.07;5.15;;;20.20;99.90;;;;;;5055560;28;20238;-80
2023/06/21 01:04:59;;;;;;;7.78;5.78;;;20.10;99.90;;;;;;5048910;28;20259;-79
2023/06/21 01:07:33;;;;;;;7.43;5.82;;;20.10;99.90;;;;;;5054743;28;20220;-81
2023/06/21 01:10:17;;;;;;;7.35;5.18;;;19.90;99.90;;;;;;5055832;28;20631;-80
2023/06/21 01:13:08;;;;;;;8.15;5.28;;;20.00;99.90;;;;;;5055081;28;20195;-81
2023/06/21 01:15:42;;;;;;;8.18;5.30;;;20.00;99.90;;;;;;5043018;28;20195;-80
2023/06/21 01:18:13;;;;;;;6.85;5.40;;;20.10;99.90;;;;;;5042967;28;20214;-81
2023/06/21 01:20:41;;;;;;;7.35;5.30;;;20.00;99.90;;;;;;5054454;28;20215;-82
2023/06/21 01:23:22;;;;;;;8.52;5.72;;;20.00;99.90;;;;;;5038290;28;20645;-81
2023/06/21 01:26:07;;;;;;;7.25;5.15;;;20.00;99.90;;;;;;5043591;28;20257;-80
2023/06/21 01:28:50;;;;;;;7.32;5.57;;;20.10;99.90;;;;;;5035360;28;20211;-80
2023/06/21 01:31:18;;;;;;;6.97;5.18;;;20.10;99.90;;;;;;5038176;28;20231;-81
2023/06/21 01:33:46;;;;;;;8.73;5.40;;;19.90;99.90;;;;;;5040108;28;20199;-82
2023/06/21 01:36:13;;;;;;;6.85;5.07;;;19.90;99.90;;;;;;5047512;28;20214;-79
2023/06/21 01:38:39;;;;;;;7.03;6.15;;;19.90;99.90;;;;;;5040426;28;20212;-81
2023/06/21 01:41:10;;;;;;;5.97;5.35;;;19.90;99.90;;;;;;5040641;28;20224;-81
2023/06/21 01:43:38;;;;;;;8.73;6.03;;;20.00;99.90;;;;;;5052213;28;20207;-79
2023/06/21 01:46:06;;;;;;;7.82;5.68;;;19.80;99.90;;;;;;5058435;28;20210;-81
2023/06/21 01:48:35;;;;;;;8.70;5.75;;;19.90;99.90;;;;;;5059107;28;20207;-80
2023/06/21 01:51:04;;;;;;;7.38;5.63;;;19.90;99.90;;;;;;5042446;28;20293;-82
2023/06/21 01:53:32;;;;;;;8.90;5.97;;;20.00;99.90;;;;;;5040243;28;20294;-81
2023/06/21 01:56:01;;;;;;;6.97;5.65;;;20.00;99.90;;;;;;5038265;28;20207;-81
2023/06/21 01:58:29;;;;;;;8.50;6.28;;;20.00;99.90;;;;;;5054749;28;20199;-80
2023/06/21 02:00:57;;;;;;;8.15;5.65;;;19.70;99.90;;;;;;5051304;28;20272;-80
2023/06/21 02:03:27;;;;;;;7.55;6.05;;;19.70;99.90;;;;;;5051031;28;20217;-79
2023/06/21 02:05:56;;;;;;;10.00;6.00;;;19.60;99.90;;;;;;5054140;28;20195;-79
2023/06/21 02:08:23;;;;;;;10.65;5.65;;;19.60;99.90;;;;;;5052977;28;20206;-81
2023/06/21 02:10:50;;;;;;;13.07;6.30;;;19.60;99.90;;;;;;5058346;28;20223;-80
2023/06/21 02:13:17;;;;;;;9.43;6.40;;;19.60;99.90;;;;;;5053355;28;20203;-82
2023/06/21 02:15:44;;;;;;;9.65;5.60;;;19.60;99.90;;;;;;5055313;28;20199;-81
2023/06/21 02:18:10;;;;;;;11.70;6.88;;;19.50;99.90;;;;;;5059867;28;20294;-82
2023/06/21 02:20:38;;;;;;;8.25;6.03;;;19.50;99.90;;;;;;5058153;28;20211;-82
2023/06/21 02:23:06;;;;;;;10.82;6.88;;;19.50;99.90;;;;;;5053056;28;20220;-79
2023/06/21 02:25:35;;;;;;;10.57;6.85;;;19.40;99.90;;;;;;5042334;28;20191;-81
2023/06/21 02:28:02;;;;;;;12.27;7.38;;;19.40;99.90;;;;;;5058960;28;20297;-82
2023/06/21 02:30:29;;;;;;;14.38;10.50;;;19.40;99.90;;;;;;5049061;28;20220;-79
2023/06/21 02:32:56;;;;;;;12.15;8.30;;;19.40;99.90;;;;;;5056894;28;20206;-81
2023/06/21 02:35:22;;;;;;;11.95;7.25;;;19.40;99.90;;;;;;5041584;28;20235;-80
2023/06/21 02:37:49;;;;;;;12.43;7.05;;;19.50;99.90;;;;;;5058184;28;20209;-79
2023/06/21 02:40:17;;;;;;;10.55;6.40;;;19.40;99.90;;;;;;5043102;28;20226;-81
2023/06/21 02:42:44;;;;;;;13.45;7.35;;;19.30;99.90;;;;;;5044897;28;20200;-79
2023/06/21 02:45:11;;;;;;;9.40;7.30;;;19.20;99.90;;;;;;5038936;28;20208;-79
2023/06/21 02:47:38;;;;;;;12.02;7.35;;;19.30;99.90;;;;;;5075010;28;20225;-82
2023/06/21 02:50:06;;;;;;;13.75;7.10;;;19.40;99.90;;;;;;5069996;28;20222;-79
2023/06/21 02:52:34;;;;;;;10.85;7.15;;;19.40;99.90;;;;;;5055789;28;20709;-80
2023/06/21 02:55:03;;;;;;;9.20;6.07;;;19.40;99.90;;;;;;5054375;28;20202;-81
2023/06/21 02:57:31;;;;;;;10.23;6.35;;;19.40;99.90;;;;;;5055074;28;20207;-80
2023/06/21 02:59:59;;;;;;;11.27;6.57;;;19.50;99.90;;;;;;5052212;28;20225;-80
2023/06/21 03:02:32;;;;;;;10.73;6.47;;;19.60;99.90;;;;;;5063696;28;20244;-81
2023/06/21 03:04:59;;;;;;;7.70;5.63;;;19.70;99.90;;;;;;5046919;28;20245;-82
2023/06/21 03:07:26;;;;;;;11.45;7.00;;;19.60;99.90;;;;;;5037407;28;20219;-81
2023/06/21 03:09:53;;;;;;;13.20;6.38;;;19.80;99.90;;;;;;5037238;28;20204;-83
2023/06/21 03:12:20;;;;;;;8.55;6.15;;;19.90;99.90;;;;;;5036799;28;20730;-81
2023/06/21 03:14:48;;;;;;;12.48;6.47;;;19.90;99.90;;;;;;5036575;28;20215;-81
2023/06/21 03:17:15;;;;;;;13.27;7.45;;;19.90;99.90;;;;;;5036807;28;20212;-82
2023/06/21 03:19:42;;;;;;;7.95;6.47;;;19.90;99.90;;;;;;5044449;28;20206;-81
2023/06/21 03:22:09;;;;;;;8.18;6.15;;;20.00;99.90;;;;;;5058339;28;20206;-80
2023/06/21 03:24:36;;;;;;;8.90;6.57;;;20.00;99.90;;;;;;5057629;28;20202;-81
2023/06/21 03:27:03;;;;;;;12.10;7.07;;;20.10;99.90;;;;;;5058585;28;20199;-81
2023/06/21 03:29:30;;;;;;;11.00;6.85;;;20.00;99.90;;;;;;5057444;28;20203;-82
2023/06/21 03:31:58;;;;;;;10.95;7.72;;;20.00;99.90;;;;;;5057535;28;20227;-81
2023/06/21 03:34:25;;;;;;;11.10;6.63;;;20.10;99.90;;;;;;5053809;28;20214;-80
2023/06/21 03:36:54;;;;;;;11.48;6.50;;;20.10;99.90;;;;;;5057838;28;20230;-79
2023/06/21 03:39:21;;;;;;;10.65;6.57;;;20.10;99.90;;;;;;5058629;28;20621;-81
2023/06/21 03:41:48;;;;;;;8.32;6.43;;;20.10;99.90;;;;;;5057689;28;20257;-80
2023/06/21 03:44:15;;;;;;;9.85;6.43;;;20.10;99.90;;;;;;5058130;28;20576;-81
2023/06/21 03:46:42;;;;;;;11.35;7.20;;;20.00;99.90;;;;;;5057592;28;20270;-81
2023/06/21 03:49:10;;;;;;;9.32;6.85;;;20.00;99.90;;;;;;5057734;28;20203;-80
2023/06/21 03:51:41;;;;;;;10.10;6.50;;;19.70;99.90;;;;;;5058505;28;20313;-81
2023/06/21 03:54:08;;;;;;;11.45;7.20;;;19.80;99.90;;;;;;5056148;28;20210;-81
2023/06/21 03:56:35;;;;;;;13.85;7.32;;;19.80;99.90;;;;;;5057624;28;20207;-82
2023/06/21 03:59:02;;;;;;;10.95;7.88;;;19.90;99.90;;;;;;5057647;28;20296;-82
2023/06/21 04:01:29;;;;;;;10.02;7.45;;;19.90;99.90;;;;;;5057438;28;20219;-79
2023/06/21 04:03:56;;;;;;;12.70;7.85;;;20.00;99.90;;;;;;5058461;28;20209;-80
2023/06/21 04:06:25;;;;;;;10.20;7.10;;;20.20;99.90;;;;;;5057232;28;20273;-81
2023/06/21 04:08:52;;;;;;;11.27;6.90;;;20.20;99.90;;;;;;5057669;28;20214;-82
2023/06/21 04:11:19;;;;;;;10.20;7.22;;;20.30;99.90;;;;;;5056648;28;20227;-81
2023/06/21 04:13:46;;;;;;;15.18;8.43;;;20.80;99.90;;;;;;5056928;28;20210;-82
2023/06/21 04:16:12;;;;;;;9.90;7.32;;;21.70;99.90;;;;;;5057632;28;20414;-81
2023/06/21 04:18:39;;;;;;;13.60;6.85;;;22.60;99.90;;;;;;5057779;28;20206;-80
2023/06/21 04:21:06;;;;;;;11.25;6.60;;;22.80;99.90;;;;;;5058562;28;20219;-80
2023/06/21 04:23:34;;;;;;;10.13;6.45;;;23.50;99.90;;;;;;5058220;28;20576;-80
2023/06/21 04:26:05;;;;;;;9.90;6.63;;;22.70;99.90;;;;;;5057112;28;20275;-81
2023/06/21 04:28:32;;;;;;;11.50;6.53;;;21.70;99.90;;;;;;5058506;28;20198;-82
2023/06/21 04:31:00;;;;;;;9.80;6.57;;;21.20;99.90;;;;;;5057837;28;20233;-81
2023/06/21 04:33:28;;;;;;;10.80;6.68;;;21.10;99.90;;;;;;5058299;28;20203;-81
2023/06/21 04:35:55;;;;;;;11.45;6.97;;;21.20;99.90;;;;;;5057467;28;20207;-83
2023/06/21 04:38:22;;;;;;;11.05;7.32;;;21.00;99.90;;;;;;5058103;28;20199;-81
2023/06/21 04:40:52;;;;;;;11.57;7.30;;;20.90;99.90;;;;;;5057230;28;20695;-82
2023/06/21 04:43:21;;;;;;;8.80;6.85;;;20.70;99.90;;;;;;5057575;28;20310;-83
2023/06/21 04:45:48;;;;;;;12.20;7.40;;;21.00;99.90;;;;;;5058033;28;20202;-81
2023/06/21 04:48:15;;;;;;;9.93;7.13;;;21.00;99.90;;;;;;5057054;28;20274;-82
2023/06/21 04:50:44;;;;;;;12.10;7.40;;;20.80;99.90;;;;;;5056989;28;20223;-81
2023/06/21 04:53:12;;;;;;;9.40;7.50;;;20.80;99.90;;;;;;5056896;28;20305;-82
2023/06/21 04:55:42;;;;;;;10.40;7.70;;;20.70;99.90;;;;;;5057465;28;20203;-81
2023/06/21 04:58:10;;;;;;;11.18;7.63;;;20.80;99.90;;;;;;5056945;28;20260;-80
2023/06/21 05:00:37;;;;;;;10.75;7.93;;;20.70;99.90;;;;;;5058043;28;20621;-80
2023/06/21 05:03:04;;;;;;;11.60;7.80;;;20.60;99.90;;;;;;5057157;28;20199;-83
2023/06/21 05:05:31;;;;;;;12.13;7.97;;;20.70;99.90;;;;;;5056286;28;20659;-81
2023/06/21 05:07:57;;;;;;;12.85;7.63;;;20.60;99.90;;;;;;5057119;28;20199;-79
2023/06/21 05:10:24;;;;;;;9.95;7.47;;;20.60;99.90;;;;;;5056389;28;20222;-82
2023/06/21 05:12:51;;;;;;;12.10;7.32;;;20.50;99.90;;;;;;5057185;28;20233;-81
2023/06/21 05:15:19;;;;;;;9.65;6.90;;;20.50;99.90;;;;;;5057475;28;20213;-82
2023/06/21 05:17:46;;;;;;;8.48;6.50;;;20.60;99.90;;;;;;5057796;28;20276;-80
2023/06/21 05:20:13;;;;;;;8.90;6.47;;;20.70;99.90;;;;;;5057546;28;20223;-81
2023/06/21 05:22:41;;;;;;;7.85;6.32;;;20.90;99.90;;;;;;5057209;28;20208;-80
2023/06/21 05:25:09;;;;;;;8.27;5.97;;;21.00;99.90;;;;;;5057171;28;20199;-82
2023/06/21 05:27:36;;;;;;;11.23;6.45;;;21.10;99.90;;;;;;5057144;28;20198;-81
2023/06/21 05:30:03;;;;;;;6.20;5.40;;;21.10;99.90;;;;;;5057302;28;20232;-83
2023/06/21 05:32:31;;;;;;;6.43;5.57;;;21.40;99.90;;;;;;5057629;28;20222;-82
2023/06/21 05:34:58;;;;;;;7.13;5.70;;;21.20;99.90;;;;;;5058781;28;20209;-80
2023/06/21 05:37:25;;;;;;;8.00;6.07;;;21.30;99.90;;;;;;5068640;28;20206;-81
2023/06/21 05:39:51;;;;;;;7.15;5.65;;;22.20;99.90;;;;;;5076192;28;20209;-83
2023/06/21 05:42:18;;;;;;;9.30;5.72;;;22.80;99.90;;;;;;5076701;28;20195;-81
2023/06/21 05:44:45;;;;;;;6.53;5.43;;;22.60;99.90;;;;;;5076585;28;20281;-80
2023/06/21 05:47:12;;;;;;;8.32;5.40;;;21.80;99.90;;;;;;5075821;28;20210;-81
2023/06/21 05:49:40;;;;;;;7.30;5.22;;;21.60;99.90;;;;;;5075912;28;20686;-80
2023/06/21 05:52:07;;;;;;;6.72;4.93;;;21.70;99.90;;;;;;5076195;28;20244;-81
2023/06/21 05:54:34;;;;;;;9.52;5.65;;;21.50;99.90;;;;;;5076254;28;20218;-82
2023/06/21 05:57:03;;;;;;;5.68;4.80;;;21.30;99.90;;;;;;5076481;28;20208;-83
2023/06/21 05:59:30;;;;;;;6.72;5.35;;;21.30;99.90;;;;;;5063035;28;20203;-82
2023/06/21 06:01:56;;;;;;;8.13;5.40;;;21.20;99.90;;;;;;5052544;28;20222;-81
2023/06/21 06:04:23;;;;;;;6.88;5.60;;;21.40;99.90;;;;;;5056871;28;20210;-82
2023/06/21 06:06:51;;;;;;;6.40;5.35;;;21.60;99.90;;;;;;5056433;28;20518;-80
2023/06/21 06:09:18;;;;;;;7.50;5.45;;;21.80;99.90;;;;;;5056403;28;20203;-80
2023/06/21 06:11:45;;;;;;;6.30;5.35;;;21.60;99.90;;;;;;5056069;28;20246;-83
2023/06/21 06:14:12;;;;;;;7.82;5.50;;;21.80;99.90;;;;;;5056638;28;20207;-82
2023/06/21 06:16:39;;;;;;;8.55;5.55;;;21.80;99.90;;;;;;5056084;28;20199;-83
2023/06/21 06:19:07;;;;;;;7.07;5.22;;;21.70;99.90;;;;;;5060642;28;20214;-81
2023/06/21 06:21:33;;;;;;;7.68;5.65;;;21.80;99.90;;;;;;5060752;28;20570;-80
2023/06/21 06:24:01;;;;;;;8.65;5.30;;;21.70;99.90;;;;;;5059955;28;20203;-80
2023/06/21 06:26:28;;;;;;;6.85;5.25;;;21.80;99.90;;;;;;5060807;28;20210;-80
2023/06/21 06:28:56;;;;;;;5.57;4.68;;;21.90;99.90;;;;;;5060679;28;20199;-83
2023/06/21 06:31:24;;;;;;;7.53;4.53;;;22.10;99.90;;;;;;5060206;28;20721;-80
2023/06/21 06:33:51;;;;;;;5.90;4.75;;;22.10;99.90;;;;;;5059107;28;20206;-80
2023/06/21 06:36:18;;;;;;;6.90;5.50;;;21.90;99.90;;;;;;5060119;28;20203;-81
2023/06/21 06:38:46;;;;;;;7.03;4.95;;;21.90;99.90;;;;;;5060199;28;20198;-80
2023/06/21 06:41:14;;;;;;;6.13;4.80;;;22.00;99.90;;;;;;5060917;28;20703;-82
2023/06/21 06:43:41;;;;;;;7.35;4.88;;;22.10;99.90;;;;;;5061121;28;20206;-80
2023/06/21 06:46:08;;;;;;;4.80;4.30;;;22.20;99.90;;;;;;5062153;28;20214;-81
2023/06/21 06:48:34;;;;;;;6.80;4.72;;;22.10;99.90;;;;;;5062066;28;20209;-81
2023/06/21 06:51:01;;;;;;;6.90;4.65;;;22.20;99.90;;;;;;5061962;28;20227;-81
2023/06/21 06:53:28;;;;;;;6.05;5.15;;;22.10;99.90;;;;;;5061654;28;20226;-80
2023/06/21 06:55:55;;;;;;;6.35;4.72;;;22.20;99.90;;;;;;5059554;28;20214;-80
2023/06/21 06:58:23;;;;;;;5.63;5.05;;;22.20;99.90;;;;;;5062851;28;20209;-81
2023/06/21 07:00:50;;;;;;;7.03;4.93;;;22.30;99.90;;;;;;5062472;28;20227;-81
2023/06/21 07:03:17;;;;;;;4.90;4.38;;;22.10;99.90;;;;;;5060803;28;20199;-81
2023/06/21 07:05:44;;;;;;;6.38;5.15;;;22.30;99.90;;;;;;5060729;28;20207;-81
2023/06/21 07:08:11;;;;;;;6.43;4.78;;;22.30;99.90;;;;;;5055355;28;20207;-81
2023/06/21 07:10:38;;;;;;;6.47;5.70;;;22.30;99.90;;;;;;5053335;28;20223;-80
2023/06/21 07:13:05;;;;;;;7.57;5.55;;;22.30;99.90;;;;;;5052541;28;20714;-80
2023/06/21 07:15:34;;;;;;;5.88;5.10;;;22.30;99.90;;;;;;5059786;28;20213;-80
2023/06/21 07:18:01;;;;;;;6.60;5.47;;;22.20;99.90;;;;;;5061266;28;20206;-80
2023/06/21 07:20:27;;;;;;;6.68;5.60;;;22.30;99.90;;;;;;5061446;28;20223;-81
2023/06/21 07:22:55;;;;;;;5.72;5.10;;;22.20;99.90;;;;;;5060793;28;20210;-80
2023/06/21 07:25:22;;;;;;;6.45;5.30;;;22.20;99.90;;;;;;5060890;28;20202;-80
2023/06/21 07:27:49;;;;;;;7.90;5.32;;;22.20;99.90;;;;;;5059814;28;20210;-81
2023/06/21 07:30:16;;;;;;;7.85;5.22;;;22.20;99.90;;;;;;5060962;28;20219;-80
2023/06/21 07:32:46;;;;;;;7.15;5.50;;;22.10;99.90;;;;;;5059975;28;20219;-80
2023/06/21 07:35:14;;;;;;;6.65;5.55;;;22.30;99.90;;;;;;5060553;28;20195;-80
2023/06/21 07:37:41;;;;;;;5.65;5.07;;;22.20;99.90;;;;;;5060738;28;20213;-80
2023/06/21 07:40:09;;;;;;;7.32;5.97;;;22.40;99.90;;;;;;5060102;28;20218;-80
2023/06/21 07:42:36;;;;;;;7.13;6.22;;;22.40;99.90;;;;;;5060202;28;20202;-80
2023/06/21 07:45:03;;;;;;;8.20;6.07;;;22.50;99.90;;;;;;5060366;28;20218;-81
2023/06/21 07:47:30;;;;;;;7.45;6.47;;;22.50;99.90;;;;;;5059358;28;20213;-81
2023/06/21 07:49:58;;;;;;;8.32;6.50;;;22.40;99.90;;;;;;5059436;28;20206;-81
2023/06/21 07:52:25;;;;;;;9.45;7.30;;;22.40;99.90;;;;;;5059487;28;20230;-80
2023/06/21 07:54:52;;;;;;;8.95;7.85;;;22.50;99.90;;;;;;5060515;28;20199;-81
2023/06/21 07:57:19;;;;;;;9.02;7.82;;;22.50;99.90;;;;;;5059870;28;20210;-81
2023/06/21 07:59:46;;;;;;;8.45;7.53;;;22.70;99.90;;;;;;5058835;28;20728;-80
2023/06/21 08:02:14;;;;;;;8.95;7.47;;;22.60;99.90;;;;;;5059131;28;20207;-80
2023/06/21 08:04:42;;;;;;;7.80;7.00;;;22.60;99.90;;;;;;5060478;28;20227;-80
2023/06/21 08:07:10;;;;;;;7.82;6.40;;;22.80;99.90;;;;;;5060396;28;20202;-80
2023/06/21 08:09:37;;;;;;;8.18;6.90;;;22.80;99.90;;;;;;5059931;28;20207;-79
2023/06/21 08:12:04;;;;;;;7.32;6.22;;;23.10;99.90;;;;;;5059144;28;20309;-81
2023/06/21 08:14:31;;;;;;;7.82;7.07;;;23.00;99.90;;;;;;5059357;28;20202;-81
2023/06/21 08:16:58;;;;;;;8.70;7.47;;;23.00;99.90;;;;;;5059447;28;20204;-80
2023/06/21 08:19:24;;;;;;;9.82;7.72;;;23.10;99.90;;;;;;5059901;28;20210;-80
2023/06/21 08:21:51;;;;;;;9.40;7.38;;;23.20;99.90;;;;;;5059709;28;20237;-80
2023/06/21 08:24:19;;;;;;;10.27;7.68;;;23.30;99.90;;;;;;5058983;28;20611;-80
2023/06/21 08:26:46;;;;;;;10.15;8.15;;;23.40;99.90;;;;;;5058706;28;20203;-80
2023/06/21 08:29:13;;;;;;;12.23;8.73;;;23.10;99.90;;;;;;5058152;28;20210;-80
2023/06/21 08:31:40;;;;;;;10.95;8.10;;;23.10;99.90;;;;;;5060234;28;20314;-81
2023/06/21 08:34:06;;;;;;;10.07;7.60;;;23.40;99.90;;;;;;5059394;28;20226;-80
2023/06/21 08:36:33;;;;;;;8.65;7.55;;;23.40;99.90;;;;;;5059938;28;20206;-81
2023/06/21 08:39:00;;;;;;;9.45;7.60;;;23.60;99.90;;;;;;5060335;28;20221;-81
2023/06/21 08:41:29;;;;;;;9.05;7.82;;;23.60;99.90;;;;;;5058661;28;20233;-81
2023/06/21 08:43:55;;;;;;;8.55;7.65;;;24.00;99.90;;;;;;5059747;28;20207;-80
2023/06/21 08:46:25;;;;;;;8.52;6.80;;;24.00;99.90;;;;;;5059294;28;20581;-81
2023/06/21 08:48:56;;;;;;;9.98;7.43;;;24.20;99.90;;;;;;5059869;28;20659;-80
2023/06/21 08:51:23;;;;;;;8.68;7.35;;;24.40;99.90;;;;;;5059622;28;20226;-80
2023/06/21 08:53:56;;;;;;;9.80;8.32;;;24.30;99.90;;;;;;5059561;28;20223;-80
2023/06/21 08:56:24;;;;;;;8.05;6.93;;;24.50;99.90;;;;;;5059810;28;20206;-80
2023/06/21 08:58:59;;;;;;;7.97;6.78;;;24.80;99.90;;;;;;5059994;28;20213;-81
2023/06/21 09:01:29;;;;;;;6.38;5.78;;;24.80;99.90;;;;;;5058995;28;20690;-80
2023/06/21 09:03:58;;;;;;;7.28;5.53;;;25.10;99.90;;;;;;5059721;28;20205;-80
2023/06/21 09:06:26;;;;;;;7.43;5.82;;;25.20;99.90;;;;;;5059165;28;20209;-81
2023/06/21 09:08:54;;;;;;;7.32;6.28;;;25.30;99.90;;;;;;5059945;28;20199;-80
2023/06/21 09:11:22;;;;;;;7.05;6.32;;;25.70;99.90;;;;;;5060020;28;20272;-80
2023/06/21 09:13:49;;;;;;;9.75;7.03;;;25.80;99.90;;;;;;5061270;28;20241;-81
2023/06/21 09:16:18;;;;;;;7.35;6.65;;;25.80;99.90;;;;;;5062731;28;20203;-81
2023/06/21 09:18:45;;;;;;;7.10;6.38;;;25.90;99.90;;;;;;5063585;28;20206;-78
2023/06/21 09:21:13;;;;;;;7.05;6.32;;;25.90;99.90;;;;;;5063241;28;20233;-80
2023/06/21 09:23:40;;;;;;;8.85;6.78;;;26.30;99.90;;;;;;5062179;28;20199;-80
2023/06/21 09:26:08;;;;;;;7.88;6.63;;;25.90;99.90;;;;;;5062161;28;20210;-81
2023/06/21 09:28:35;;;;;;;9.02;7.40;;;25.40;99.90;;;;;;5063688;28;20213;-80
2023/06/21 09:31:02;;;;;;;9.73;7.43;;;25.20;99.90;;;;;;5062965;28;20229;-81
2023/06/21 09:33:31;;;;;;;6.93;6.22;;;25.20;99.90;;;;;;5063416;28;20258;-81
2023/06/21 09:35:58;;;;;;;7.20;6.45;;;25.40;99.90;;;;;;5063811;28;20207;-79
2023/06/21 09:38:28;;;;;;;8.20;7.38;;;25.40;99.90;;;;;;5064631;28;20234;-81
2023/06/21 09:40:56;;;;;;;8.15;7.35;;;25.90;99.90;;;;;;5064892;28;20710;-80
2023/06/21 09:43:23;;;;;;;8.07;7.13;;;26.40;99.90;;;;;;5064131;28;20195;-81
2023/06/21 09:46:02;;;;;;;7.93;7.00;;;25.90;99.90;;;;;;5064148;28;20274;-80
2023/06/21 09:48:32;;;;;;;9.20;7.35;;;26.40;99.90;;;;;;5063209;28;20233;-80
2023/06/21 09:51:02;;;;;;;9.57;8.00;;;26.30;99.90;;;;;;5061674;28;20223;-81
2023/06/21 09:53:28;;;;;;;7.90;6.90;;;26.30;99.90;;;;;;5065346;28;20287;-80
2023/06/21 09:55:56;;;;;;;8.23;6.85;;;26.50;99.90;;;;;;5067978;28;20203;-79
2023/06/21 09:58:23;;;;;;;8.55;7.75;;;26.40;99.90;;;;;;5066322;28;20667;-80
2023/06/21 10:00:50;;;;;;;8.50;7.15;;;26.70;99.90;;;;;;5067635;28;20310;-81
2023/06/21 10:03:17;;;;;;;9.32;8.43;;;26.80;99.90;;;;;;5065612;28;20263;-78
2023/06/21 10:05:56;;;;;;;9.70;8.70;;;26.60;99.90;;;;;;5066682;28;20270;-79
2023/06/21 10:08:26;;;;;;;10.35;8.82;;;26.20;99.90;;;;;;5065790;28;20224;-79
2023/06/21 10:10:54;;;;;;;9.40;7.95;;;26.00;99.90;;;;;;5065145;28;20305;-80
2023/06/21 10:13:27;;;;;;;8.00;7.20;;;26.40;99.90;;;;;;5065226;28;20214;-81
2023/06/21 10:15:55;;;;;;;7.68;6.72;;;26.60;99.90;;;;;;5064264;28;20615;-81
2023/06/21 10:18:22;;;;;;;8.50;7.53;;;26.50;99.90;;;;;;5064799;28;20199;-80
2023/06/21 10:20:53;;;;;;;8.25;7.45;;;26.10;99.90;;;;;;5064709;28;20222;-80
2023/06/21 10:23:24;;;;;;;8.70;7.80;;;26.00;99.90;;;;;;5064408;28;20207;-79
2023/06/21 10:25:52;;;;;;;11.75;7.60;;;25.90;99.90;;;;;;5065104;28;20209;-81
2023/06/21 10:28:20;;;;;;;8.85;7.95;;;26.20;99.90;;;;;;5064366;28;20202;-81
2023/06/21 10:30:49;;;;;;;9.20;7.35;;;26.30;99.90;;;;;;5067252;28;20226;-80
2023/06/21 10:33:17;;;;;;;9.95;8.07;;;26.90;99.90;;;;;;5065437;28;20290;-80
2023/06/21 10:35:48;;;;;;;8.00;7.25;;;27.30;99.90;;;;;;5065154;28;20210;-80
2023/06/21 10:38:24;;;;;;;7.80;7.05;;;27.80;99.90;;;;;;5067546;28;20256;-80
2023/06/21 10:40:53;;;;;;;7.22;6.47;;;27.70;99.90;;;;;;5066275;28;20248;-81
2023/06/21 10:43:21;;;;;;;8.35;7.25;;;27.30;78.60;;;;;;5062828;28;20209;-81
2023/06/21 10:45:49;;;;;;;9.68;8.07;;;27.30;99.90;;;;;;5047915;28;20200;-81
2023/06/21 10:48:18;;;;;;;8.55;7.75;;;26.70;99.90;;;;;;5044578;28;20204;-81
2023/06/21 10:50:45;;;;;;;8.90;8.10;;;27.00;99.90;;;;;;5043081;28;20224;-80
2023/06/21 10:53:13;;;;;;;9.25;8.32;;;27.10;99.90;;;;;;5041511;28;20237;-82
2023/06/21 10:55:42;;;;;;;9.98;9.07;;;27.50;77.90;;;;;;5040273;28;20206;-82
2023/06/21 10:58:09;;;;;;;8.88;8.00;;;27.30;30.40;;;;;;5040213;28;20203;-80
2023/06/21 11:00:36;;;;;;;9.02;8.05;;;28.00;38.20;;;;;;5041482;28;20314;-79
2023/06/21 11:03:03;;;;;;;9.38;8.43;;;28.10;21.10;;;;;;5052544;28;20263;-82
2023/06/21 11:05:32;;;;;;;9.93;8.75;;;28.20;14.10;;;;;;5052232;28;20199;-81
2023/06/21 11:08:01;;;;;;;11.82;9.10;;;28.20;33.40;;;;;;5051536;28;20199;-82
2023/06/21 11:10:36;;;;;;;9.88;8.43;;;27.60;29.10;;;;;;5050240;28;20216;-79
2023/06/21 11:13:05;;;;;;;11.00;9.82;;;28.30;87.90;;;;;;5049444;28;20908;-81
2023/06/21 11:15:33;;;;;;;10.30;9.32;;;28.40;26.00;;;;;;5052372;28;20580;-84
2023/06/21 11:18:05;;;;;;;10.00;8.85;;;28.50;49.20;;;;;;5041696;28;20196;-83
2023/06/21 11:20:44;;;;;;;10.35;9.30;;;28.70;1.00;;;;;;5041469;28;20215;-81
2023/06/21 11:23:14;;;;;;;10.55;9.45;;;28.60;1.00;;;;;;5045531;28;20212;-82
2023/06/21 11:25:50;;;;;;;9.27;8.35;;;28.30;1.00;;;;;;5048172;28;20207;-82
2023/06/21 11:28:26;;;;;;;8.68;7.72;;;28.20;1.00;;;;;;5047675;28;20228;-84
2023/06/21 11:31:11;;;;;;;9.18;8.27;;;28.20;1.00;;;;;;5059940;28;20662;-81
2023/06/21 11:33:53;;;;;;;10.30;7.75;;;28.10;1.00;;;;;;5058858;28;20246;-84
2023/06/21 11:36:24;;;;;;;8.25;7.45;;;28.30;1.00;;;;;;5051237;28;20206;-81
2023/06/21 11:38:58;;;;;;;9.40;8.48;;;28.20;1.00;;;;;;5050796;28;20199;-82
2023/06/21 11:41:40;;;;;;;10.25;8.88;;;28.30;1.00;;;;;;5059424;28;20233;-83
2023/06/21 11:44:08;;;;;;;11.55;9.65;;;28.20;1.00;;;;;;5052871;28;20200;-80
2023/06/21 11:46:36;;;;;;;9.15;8.25;;;29.00;1.00;;;;;;5047485;28;20217;-83
2023/06/21 11:49:03;;;;;;;10.82;9.50;;;29.50;1.00;;;;;;5056407;28;20279;-81
2023/06/21 11:51:30;;;;;;;9.88;8.88;;;29.10;1.00;;;;;;5068460;28;20222;-81
2023/06/21 11:53:57;;;;;;;9.88;8.88;;;28.70;1.00;;;;;;5052237;28;20237;-85
2023/06/21 11:56:29;;;;;;;12.20;10.20;;;28.90;1.00;;;;;;5059571;28;20294;-84
2023/06/21 11:58:56;;;;;;;13.23;9.57;;;28.60;1.00;;;;;;5058944;28;20205;-85
2023/06/21 12:01:25;;;;;;;10.73;9.63;;;28.80;1.00;;;;;;5059464;28;20849;-83
2023/06/21 12:03:58;;;;;;;10.75;8.57;;;27.70;1.00;;;;;;5058904;28;20203;-85
2023/06/21 12:06:25;;;;;;;8.40;7.60;;;28.40;1.00;;;;;;5057602;28;20203;-82
2023/06/21 12:08:57;;;;;;;7.75;7.05;;;28.60;1.00;;;;;;5057631;28;20603;-82
2023/06/21 12:11:26;;;;;;;8.23;7.43;;;28.60;1.00;;;;;;5058410;28;20222;-82
2023/06/21 12:13:53;;;;;;;8.60;7.75;;;28.10;1.00;;;;;;5057936;28;20222;-82
2023/06/21 12:16:20;;;;;;;9.27;8.35;;;28.00;1.00;;;;;;5056884;28;20230;-83
2023/06/21 12:18:48;;;;;;;8.68;7.90;;;27.80;1.00;;;;;;5055901;28;20268;-82
2023/06/21 12:21:15;;;;;;;9.77;8.68;;;27.90;1.00;;;;;;5057812;28;20227;-82
2023/06/21 12:23:42;;;;;;;9.45;8.45;;;27.80;1.00;;;;;;5057957;28;20631;-81
2023/06/21 12:26:13;;;;;;;9.70;8.80;;;27.40;1.00;;;;;;5057797;28;20194;-83
2023/06/21 12:28:40;;;;;;;9.05;8.15;;;27.40;46.10;;;;;;5057830;28;20659;-81
2023/06/21 12:31:08;;;;;;;8.85;8.05;;;27.50;99.90;;;;;;5058399;28;20774;-83
2023/06/21 12:33:36;;;;;;;9.48;8.57;;;27.60;22.40;;;;;;5058232;28;20227;-84
2023/06/21 12:36:17;;;;;;;10.18;8.48;;;28.20;1.00;;;;;;5051670;28;20563;-82
2023/06/21 12:38:47;;;;;;;8.35;7.55;;;28.90;1.00;;;;;;5041541;28;20650;-83
2023/06/21 12:41:18;;;;;;;8.50;7.70;;;29.40;1.00;;;;;;5057697;28;20219;-84
2023/06/21 12:43:46;;;;;;;8.77;7.82;;;28.70;1.00;;;;;;5057518;28;20546;-81
2023/06/21 12:46:13;;;;;;;10.45;8.98;;;28.90;1.00;;;;;;5057421;28;20209;-84
2023/06/21 12:48:45;;;;;;;8.60;7.72;;;29.10;1.00;;;;;;5056531;28;20203;-80
2023/06/21 12:51:19;;;;;;;10.00;8.13;;;29.40;1.00;;;;;;5056858;28;20225;-80